Time;durP1;ratioP1;P1;durP2;ratioP2;P2;SDS_P1;SDS_P2;PMS_P1;PMS_P2;Temp;Humidity;BMP_temperature;BMP_pressure;BME280_temperature;BME280_humidity;BME280_pressure;Samples;Min_cycle;Max_cycle;Signal;HPM_P1;HPM_P2
2023/08/11 00:00:30;;;;;;;2.87;2.67;;;;;;;;;;5002357;28;20239;-80
2023/08/11 00:02:55;;;;;;;3.17;2.70;;;;;;;;;;5013489;28;20182;-80
2023/08/11 00:05:20;;;;;;;3.10;2.40;;;;;;;;;;5028840;28;20214;-79
2023/08/11 00:07:46;;;;;;;3.17;2.87;;;;;;;;;;5007112;28;20170;-80
2023/08/11 00:10:12;;;;;;;2.97;2.70;;;;;;;;;;5013930;28;20182;-80
2023/08/11 00:12:38;;;;;;;2.70;2.50;;;;;;;;;;5030311;28;20178;-80
2023/08/11 00:15:03;;;;;;;2.90;2.70;;;;;;;;;;5011415;28;20182;-79
2023/08/11 00:17:28;;;;;;;3.47;2.93;;;;;;;;;;5013072;28;20191;-79
2023/08/11 00:19:54;;;;;;;3.23;2.80;;;;;;;;;;5013592;28;20186;-80
2023/08/11 00:22:19;;;;;;;2.83;2.57;;;;;;;;;;5011933;28;20190;-79
2023/08/11 00:24:44;;;;;;;3.10;2.90;;;;;;;;;;5026027;28;20207;-80
2023/08/11 00:27:09;;;;;;;4.13;3.07;;;;;;;;;;5029121;28;20264;-80
2023/08/11 00:29:34;;;;;;;3.83;2.97;;;;;;;;;;5014677;28;20234;-80
2023/08/11 00:32:00;;;;;;;3.43;2.67;;;;;;;;;;5026302;28;20202;-80
2023/08/11 00:34:25;;;;;;;3.47;3.00;;;;;;;;;;5009799;28;20191;-80
2023/08/11 00:36:50;;;;;;;3.20;2.90;;;;;;;;;;5022244;28;20185;-80
2023/08/11 00:39:15;;;;;;;3.07;2.67;;;;;;;;;;5024903;28;20234;-80
2023/08/11 00:41:41;;;;;;;2.90;2.70;;;;;;;;;;5034491;28;20224;-80
2023/08/11 00:44:06;;;;;;;3.37;2.43;;;;;;;;;;5015637;28;20194;-80
2023/08/11 00:46:31;;;;;;;2.50;2.30;;;;;;;;;;5024823;28;20265;-80
2023/08/11 00:48:57;;;;;;;2.57;2.37;;;;;;;;;;5032673;28;20187;-79
2023/08/11 00:51:23;;;;;;;3.37;2.97;;;;;;;;;;5030336;28;20227;-80
2023/08/11 00:53:49;;;;;;;3.10;2.70;;;;;;;;;;5005292;28;20180;-80
2023/08/11 00:56:15;;;;;;;3.07;2.77;;;;;;;;;;5012209;28;20329;-80
2023/08/11 00:58:42;;;;;;;3.07;2.77;;;;;;;;;;5030937;28;20189;-80
2023/08/11 01:01:08;;;;;;;5.03;2.63;;;;;;;;;;5017996;28;20175;-80
2023/08/11 01:03:34;;;;;;;2.77;2.40;;;;;;;;;;5029105;28;20181;-80
2023/08/11 01:06:08;;;;;;;3.00;2.70;;;;;;;;;;5028726;28;20219;-80
2023/08/11 01:08:38;;;;;;;2.90;2.50;;;;;;;;;;5029125;28;20184;-80
2023/08/11 01:11:09;;;;;;;3.03;2.73;;;;;;;;;;5033193;28;20187;-80
2023/08/11 01:13:37;;;;;;;3.10;2.73;;;;;;;;;;5015905;28;20189;-80
2023/08/11 01:16:04;;;;;;;2.50;2.30;;;;;;;;;;5012180;28;20178;-79
2023/08/11 01:18:30;;;;;;;2.60;2.40;;;;;;;;;;5028852;28;20178;-80
2023/08/11 01:20:58;;;;;;;2.87;2.47;;;;;;;;;;5031416;28;20179;-80
2023/08/11 01:23:24;;;;;;;3.10;2.40;;;;;;;;;;5013465;28;20177;-80
2023/08/11 01:25:50;;;;;;;2.70;2.50;;;;;;;;;;5015715;28;20257;-79
2023/08/11 01:28:15;;;;;;;3.00;2.80;;;;;;;;;;5032255;28;20204;-80
2023/08/11 01:30:40;;;;;;;2.70;2.50;;;;;;;;;;5009686;28;20280;-80
2023/08/11 01:33:05;;;;;;;2.90;2.60;;;;;;;;;;5015022;28;20238;-80
2023/08/11 01:35:31;;;;;;;2.90;2.70;;;;;;;;;;5018805;28;20182;-80
2023/08/11 01:37:56;;;;;;;4.67;3.00;;;;;;;;;;5029688;28;20240;-80
2023/08/11 01:40:22;;;;;;;3.87;2.47;;;;;;;;;;5019353;28;20189;-79
2023/08/11 01:42:47;;;;;;;2.87;2.67;;;;;;;;;;5028782;28;20194;-80
2023/08/11 01:45:13;;;;;;;2.80;2.60;;;;;;;;;;5013966;28;20204;-80
2023/08/11 01:47:44;;;;;;;3.17;2.87;;;;;;;;;;5013442;28;20211;-80
2023/08/11 01:50:09;;;;;;;2.93;2.57;;;;;;;;;;5016590;28;20196;-79
2023/08/11 01:52:35;;;;;;;3.03;2.50;;;;;;;;;;5016711;28;20329;-80
2023/08/11 01:55:01;;;;;;;3.23;2.60;;;;;;;;;;5016310;28;20188;-80
2023/08/11 01:57:26;;;;;;;2.60;2.40;;;;;;;;;;5032898;28;20182;-80
2023/08/11 01:59:52;;;;;;;4.07;2.30;;;;;;;;;;5029571;28;20184;-80
2023/08/11 02:02:18;;;;;;;2.67;2.47;;;;;;;;;;5029357;28;20206;-80
2023/08/11 02:04:43;;;;;;;3.90;2.60;;;;;;;;;;5018680;28;20211;-80
2023/08/11 02:07:08;;;;;;;3.97;2.60;;;;;;;;;;5031640;28;20208;-80
2023/08/11 02:09:33;;;;;;;3.03;2.60;;;;;;;;;;5015482;28;20179;-80
2023/08/11 02:11:58;;;;;;;3.60;2.77;;;;;;;;;;5009602;28;20185;-80
2023/08/11 02:14:24;;;;;;;2.60;2.40;;;;;;;;;;5012271;28;20192;-79
2023/08/11 02:16:49;;;;;;;3.93;2.80;;;;;;;;;;5013495;28;20199;-80
2023/08/11 02:19:14;;;;;;;2.47;2.27;;;;;;;;;;5014295;28;20239;-80
2023/08/11 02:21:40;;;;;;;2.83;2.63;;;;;;;;;;5012636;28;20338;-80
2023/08/11 02:24:05;;;;;;;2.80;2.53;;;;;;;;;;5015406;28;20198;-80
2023/08/11 02:26:30;;;;;;;2.73;2.53;;;;;;;;;;5015096;28;20184;-80
2023/08/11 02:28:55;;;;;;;2.67;2.30;;;;;;;;;;5035287;28;20222;-79
2023/08/11 02:31:21;;;;;;;4.07;2.67;;;;;;;;;;5011237;28;20263;-80
2023/08/11 02:33:47;;;;;;;2.67;2.47;;;;;;;;;;5030685;28;20222;-79
2023/08/11 02:36:13;;;;;;;5.70;3.10;;;;;;;;;;5009113;28;20210;-80
2023/08/11 02:38:39;;;;;;;2.80;2.50;;;;;;;;;;5010319;28;20188;-80
2023/08/11 02:41:04;;;;;;;2.97;2.50;;;;;;;;;;5026021;28;20173;-80
2023/08/11 02:43:29;;;;;;;3.07;2.40;;;;;;;;;;5011994;28;20184;-80
2023/08/11 02:45:54;;;;;;;2.33;2.13;;;;;;;;;;5014931;28;20205;-80
2023/08/11 02:48:20;;;;;;;2.83;2.63;;;;;;;;;;5014268;28;20178;-80
2023/08/11 02:50:45;;;;;;;3.53;2.57;;;;;;;;;;5015344;28;20237;-80
2023/08/11 02:53:10;;;;;;;3.93;2.63;;;;;;;;;;5010034;28;20333;-80
2023/08/11 02:55:35;;;;;;;3.07;2.77;;;;;;;;;;5029187;28;20177;-79
2023/08/11 02:58:00;;;;;;;2.70;2.50;;;;;;;;;;5029108;28;20190;-80
2023/08/11 03:00:26;;;;;;;3.13;2.53;;;;;;;;;;5015933;28;20189;-79
2023/08/11 03:02:51;;;;;;;2.60;2.40;;;;;;;;;;5007824;28;20179;-79
2023/08/11 03:05:16;;;;;;;2.50;2.30;;;;;;;;;;5015550;28;20206;-80
2023/08/11 03:07:42;;;;;;;4.77;2.33;;;;;;;;;;5012875;28;20175;-80
2023/08/11 03:10:09;;;;;;;2.63;2.10;;;;;;;;;;5031229;28;20250;-80
2023/08/11 03:12:34;;;;;;;3.10;2.40;;;;;;;;;;5013944;28;20216;-79
2023/08/11 03:15:06;;;;;;;3.50;2.57;;;;;;;;;;5024190;28;20216;-79
2023/08/11 03:17:32;;;;;;;2.83;2.40;;;;;;;;;;5030790;28;20263;-79
2023/08/11 03:19:57;;;;;;;3.07;2.67;;;;;;;;;;5029031;28;20191;-79
2023/08/11 03:22:23;;;;;;;2.63;2.43;;;;;;;;;;5013645;28;20178;-80
2023/08/11 03:24:49;;;;;;;3.47;2.63;;;;;;;;;;5013589;28;20202;-80
2023/08/11 03:27:15;;;;;;;2.97;2.57;;;;;;;;;;5028958;28;20175;-79
2023/08/11 03:29:40;;;;;;;2.83;2.30;;;;;;;;;;5011899;28;20191;-79
2023/08/11 03:35:11;;;;;;;2.83;2.53;;;;;;;;;;5028134;28;20232;-80
2023/08/11 03:37:37;;;;;;;2.50;2.30;;;;;;;;;;5005019;28;20177;-79
2023/08/11 03:40:05;;;;;;;3.83;2.40;;;;;;;;;;5034344;28;20201;-80
2023/08/11 03:42:31;;;;;;;3.00;2.47;;;;;;;;;;5012276;28;20183;-79
2023/08/11 03:44:56;;;;;;;2.53;2.33;;;;;;;;;;5006084;28;20203;-79
2023/08/11 03:47:21;;;;;;;2.57;2.37;;;;;;;;;;5016768;28;20210;-80
2023/08/11 03:49:47;;;;;;;2.80;2.50;;;;;;;;;;5034232;28;20195;-80
2023/08/11 03:52:13;;;;;;;2.67;2.47;;;;;;;;;;5018165;28;20231;-80
2023/08/11 03:54:38;;;;;;;2.30;2.07;;;;;;;;;;5030123;28;20242;-79
2023/08/11 03:57:03;;;;;;;2.60;2.40;;;;;;;;;;5014077;28;20269;-79
2023/08/11 03:59:28;;;;;;;2.83;2.63;;;;;;;;;;5005399;28;20269;-79
2023/08/11 04:01:54;;;;;;;2.97;2.73;;;;;;;;;;5028577;28;20272;-80
2023/08/11 04:04:19;;;;;;;2.67;2.40;;;;;;;;;;5013209;28;20207;-80
2023/08/11 04:06:44;;;;;;;5.63;2.87;;;;;;;;;;5013488;28;20199;-80
2023/08/11 04:09:10;;;;;;;2.83;2.63;;;;;;;;;;5025467;28;20172;-80
2023/08/11 04:11:35;;;;;;;3.30;2.20;;;;;;;;;;5005080;28;20193;-80
2023/08/11 04:14:00;;;;;;;2.50;2.30;;;;;;;;;;5011962;28;20183;-80
2023/08/11 04:16:26;;;;;;;2.90;2.30;;;;;;;;;;5012773;28;20185;-80
2023/08/11 04:18:52;;;;;;;2.40;2.20;;;;;;;;;;5026795;28;20174;-80
2023/08/11 04:21:17;;;;;;;2.47;2.27;;;;;;;;;;5008530;28;20183;-80
2023/08/11 04:23:42;;;;;;;2.53;2.30;;;;;;;;;;5009584;28;20177;-79
2023/08/11 04:26:08;;;;;;;2.47;2.27;;;;;;;;;;5011874;28;20214;-80
2023/08/11 04:28:34;;;;;;;2.30;2.10;;;;;;;;;;5030223;28;20212;-80
2023/08/11 04:31:00;;;;;;;3.03;2.67;;;;;;;;;;5030213;28;20169;-80
2023/08/11 04:33:26;;;;;;;6.20;3.43;;;;;;;;;;5020063;28;20205;-80
2023/08/11 04:35:51;;;;;;;2.83;2.57;;;;;;;;;;5012479;28;20203;-80
2023/08/11 04:38:17;;;;;;;2.73;2.53;;;;;;;;;;5011226;28;20206;-79
2023/08/11 04:40:42;;;;;;;3.77;2.53;;;;;;;;;;5006756;28;20230;-80
2023/08/11 04:43:08;;;;;;;3.80;3.07;;;;;;;;;;5029926;28;20185;-79
2023/08/11 04:45:34;;;;;;;4.43;2.90;;;;;;;;;;5033848;28;20214;-80
2023/08/11 04:47:59;;;;;;;6.50;3.00;;;;;;;;;;5015599;28;20245;-78
2023/08/11 04:50:25;;;;;;;4.23;2.77;;;;;;;;;;5013938;28;20269;-79
2023/08/11 04:52:50;;;;;;;3.53;2.90;;;;;;;;;;5015524;28;20179;-79
2023/08/11 04:55:16;;;;;;;4.93;2.77;;;;;;;;;;5019659;28;20217;-79
2023/08/11 04:57:41;;;;;;;2.97;2.67;;;;;;;;;;5020306;28;20191;-79
2023/08/11 05:00:10;;;;;;;3.23;2.93;;;;;;;;;;5012264;28;20189;-79
2023/08/11 05:02:35;;;;;;;3.70;2.83;;;;;;;;;;5010211;28;20190;-79
2023/08/11 05:05:00;;;;;;;3.10;2.67;;;;;;;;;;5033496;28;20210;-79
2023/08/11 05:07:25;;;;;;;4.47;2.70;;;;;;;;;;5016107;28;20190;-79
2023/08/11 05:09:51;;;;;;;3.67;2.70;;;;;;;;;;5017503;28;20235;-79
2023/08/11 05:12:17;;;;;;;3.10;2.67;;;;;;;;;;5014650;28;20177;-79
2023/08/11 05:14:42;;;;;;;4.50;2.67;;;;;;;;;;5020210;28;20190;-79
2023/08/11 05:17:09;;;;;;;2.80;2.50;;;;;;;;;;5012835;28;20194;-79
2023/08/11 05:19:36;;;;;;;3.07;2.70;;;;;;;;;;5012871;28;20187;-79
2023/08/11 05:22:02;;;;;;;3.03;2.63;;;;;;;;;;5018452;28;20269;-79
2023/08/11 05:24:27;;;;;;;3.50;3.03;;;;;;;;;;5015596;28;20306;-79
2023/08/11 05:26:52;;;;;;;4.10;2.50;;;;;;;;;;5033213;28;20240;-79
2023/08/11 05:29:18;;;;;;;3.50;2.73;;;;;;;;;;5015431;28;20240;-79
2023/08/11 05:31:43;;;;;;;5.80;3.13;;;;;;;;;;5015392;28;20177;-79
2023/08/11 05:34:09;;;;;;;4.07;3.23;;;;;;;;;;5008738;28;20258;-79
2023/08/11 05:36:34;;;;;;;4.83;3.60;;;;;;;;;;5014846;28;20177;-79
2023/08/11 05:39:00;;;;;;;4.00;3.30;;;;;;;;;;5016221;28;20173;-79
2023/08/11 05:41:25;;;;;;;3.40;2.80;;;;;;;;;;5017140;28;20182;-82
2023/08/11 05:43:50;;;;;;;3.47;3.00;;;;;;;;;;5031218;28;20183;-81
2023/08/11 05:46:15;;;;;;;3.40;3.10;;;;;;;;;;5015199;28;20212;-81
2023/08/11 05:48:41;;;;;;;5.93;3.23;;;;;;;;;;5031098;28;20194;-81
2023/08/11 05:51:06;;;;;;;5.07;3.03;;;;;;;;;;5010095;28;20272;-81
2023/08/11 05:53:31;;;;;;;3.10;2.90;;;;;;;;;;5015113;28;20216;-81
2023/08/11 05:55:56;;;;;;;3.50;3.00;;;;;;;;;;5013905;28;20199;-81
2023/08/11 05:58:22;;;;;;;4.87;3.37;;;;;;;;;;5016010;28;20181;-81
2023/08/11 06:00:48;;;;;;;3.60;3.30;;;;;;;;;;5014087;28;20173;-81
2023/08/11 06:03:13;;;;;;;3.80;3.13;;;;;;;;;;5015676;28;20259;-81
2023/08/11 06:05:38;;;;;;;3.17;2.93;;;;;;;;;;5011893;28;20209;-81
2023/08/11 06:08:04;;;;;;;3.50;2.73;;;;;;;;;;5016006;28;20179;-81
2023/08/11 06:10:30;;;;;;;3.10;2.90;;;;;;;;;;5007362;28;20219;-81
2023/08/11 06:12:56;;;;;;;7.47;2.83;;;;;;;;;;5012214;28;20205;-81
2023/08/11 06:15:21;;;;;;;3.90;3.23;;;;;;;;;;5023078;28;20228;-81
2023/08/11 06:17:49;;;;;;;9.33;4.13;;;;;;;;;;5013213;28;20203;-81
2023/08/11 06:20:15;;;;;;;4.37;3.40;;;;;;;;;;5011055;28;20312;-81
2023/08/11 06:22:40;;;;;;;3.07;2.83;;;;;;;;;;5018056;28;20255;-81
2023/08/11 06:25:06;;;;;;;3.40;3.10;;;;;;;;;;5032160;28;20240;-82
2023/08/11 06:27:31;;;;;;;4.43;3.17;;;;;;;;;;5018258;28;20190;-81
2023/08/11 06:29:56;;;;;;;3.90;3.50;;;;;;;;;;5035072;28;20172;-81
2023/08/11 06:32:21;;;;;;;3.60;3.30;;;;;;;;;;5030334;28;20287;-81
2023/08/11 06:34:46;;;;;;;3.60;3.30;;;;;;;;;;5010001;28;20184;-82
2023/08/11 06:37:12;;;;;;;4.30;3.27;;;;;;;;;;5026187;28;20190;-81
2023/08/11 06:39:37;;;;;;;3.33;3.03;;;;;;;;;;5023107;28;20180;-82
2023/08/11 06:42:02;;;;;;;4.30;3.03;;;;;;;;;;5014285;28;20206;-82
2023/08/11 06:44:27;;;;;;;3.97;3.33;;;;;;;;;;5016665;28;20200;-81
2023/08/11 06:46:53;;;;;;;4.70;3.10;;;;;;;;;;5017203;28;20278;-82
2023/08/11 06:49:19;;;;;;;7.23;3.20;;;;;;;;;;5016179;28;20263;-81
2023/08/11 06:51:44;;;;;;;10.97;4.60;;;;;;;;;;5012132;28;20243;-82
2023/08/11 06:54:09;;;;;;;4.20;3.23;;;;;;;;;;5026289;28;20179;-81
2023/08/11 06:56:35;;;;;;;3.50;3.17;;;;;;;;;;5008227;28;20207;-82
2023/08/11 06:59:00;;;;;;;5.67;3.33;;;;;;;;;;5030391;28;20183;-82
2023/08/11 07:01:25;;;;;;;6.33;3.20;;;;;;;;;;5013418;28;20204;-82
2023/08/11 07:03:51;;;;;;;4.23;2.83;;;;;;;;;;5011420;28;20177;-82
2023/08/11 07:06:16;;;;;;;3.17;2.87;;;;;;;;;;5007839;28;20299;-82
2023/08/11 07:08:42;;;;;;;3.77;3.10;;;;;;;;;;5011385;28;20212;-82
2023/08/11 07:11:07;;;;;;;3.93;3.53;;;;;;;;;;5025999;28;20231;-82
2023/08/11 07:13:33;;;;;;;3.13;2.83;;;;;;;;;;5008523;28;20524;-82
2023/08/11 07:15:58;;;;;;;3.13;2.83;;;;;;;;;;5011802;28;20231;-82
2023/08/11 07:18:24;;;;;;;3.23;2.90;;;;;;;;;;5010283;28;20184;-82
2023/08/11 07:20:49;;;;;;;3.30;3.00;;;;;;;;;;5009246;28;20227;-82
2023/08/11 07:23:16;;;;;;;3.60;3.17;;;;;;;;;;5027864;28;20178;-82
2023/08/11 07:25:41;;;;;;;7.60;4.20;;;;;;;;;;5007755;28;20197;-82
2023/08/11 07:28:06;;;;;;;3.50;3.20;;;;;;;;;;5012628;28;20247;-82
2023/08/11 07:30:31;;;;;;;3.70;3.40;;;;;;;;;;5031928;28;20170;-82
2023/08/11 07:32:57;;;;;;;3.53;3.13;;;;;;;;;;5010277;28;20172;-81
2023/08/11 07:35:22;;;;;;;3.37;3.07;;;;;;;;;;5029427;28;20268;-82
2023/08/11 07:37:47;;;;;;;3.80;3.33;;;;;;;;;;5014248;28;20187;-82
2023/08/11 07:40:13;;;;;;;4.43;3.30;;;;;;;;;;5009563;28;20196;-78
2023/08/11 07:42:38;;;;;;;3.57;3.27;;;;;;;;;;5027367;28;20184;-82
2023/08/11 07:45:03;;;;;;;4.43;3.30;;;;;;;;;;5011789;28;20449;-77
2023/08/11 07:47:28;;;;;;;3.93;3.23;;;;;;;;;;5034070;28;20181;-75
2023/08/11 07:49:54;;;;;;;3.40;3.10;;;;;;;;;;5011994;28;20187;-75
2023/08/11 07:52:19;;;;;;;4.03;3.10;;;;;;;;;;5031002;28;20226;-76
2023/08/11 07:54:44;;;;;;;5.23;3.20;;;;;;;;;;5028867;28;20190;-76
2023/08/11 07:57:10;;;;;;;4.07;3.47;;;;;;;;;;5022069;28;20191;-75
2023/08/11 07:59:35;;;;;;;12.43;3.77;;;;;;;;;;5012525;28;20189;-75
2023/08/11 08:02:00;;;;;;;6.17;3.10;;;;;;;;;;5009401;28;20180;-75
2023/08/11 08:04:25;;;;;;;4.70;3.40;;;;;;;;;;5031152;28;20192;-76
2023/08/11 08:06:50;;;;;;;3.87;3.30;;;;;;;;;;5019842;28;20190;-75
2023/08/11 08:09:16;;;;;;;4.17;3.10;;;;;;;;;;5004275;28;20268;-76
2023/08/11 08:11:45;;;;;;;3.57;3.27;;;;;;;;;;5021901;28;20180;-75
2023/08/11 08:14:13;;;;;;;3.53;3.23;;;;;;;;;;5004177;28;20185;-76
2023/08/11 08:16:41;;;;;;;4.93;3.10;;;;;;;;;;5011804;28;20185;-75
2023/08/11 08:19:07;;;;;;;2.83;2.63;;;;;;;;;;5018495;28;20209;-75
2023/08/11 08:21:32;;;;;;;3.67;2.97;;;;;;;;;;5025466;28;20206;-75
2023/08/11 08:23:58;;;;;;;6.90;2.83;;;;;;;;;;5016968;28;20186;-75
2023/08/11 08:26:23;;;;;;;4.80;3.13;;;;;;;;;;5026341;28;20253;-76
2023/08/11 08:28:49;;;;;;;3.47;3.17;;;;;;;;;;5008334;28;20177;-75
2023/08/11 08:31:14;;;;;;;3.80;3.37;;;;;;;;;;5018071;28;20186;-75
2023/08/11 08:33:39;;;;;;;9.87;3.73;;;;;;;;;;5010257;28;20190;-76
2023/08/11 08:36:04;;;;;;;4.17;2.87;;;;;;;;;;5029509;28;20189;-75
2023/08/11 08:38:30;;;;;;;3.43;3.13;;;;;;;;;;5005588;28;20179;-75
2023/08/11 08:40:56;;;;;;;3.70;3.40;;;;;;;;;;5030331;28;20181;-75
2023/08/11 08:43:21;;;;;;;4.70;3.53;;;;;;;;;;5009686;28;20193;-75
2023/08/11 08:45:47;;;;;;;3.93;3.53;;;;;;;;;;5023875;28;20295;-75
2023/08/11 08:48:19;;;;;;;4.63;3.37;;;;;;;;;;5010463;28;20254;-76
2023/08/11 08:50:44;;;;;;;3.97;3.33;;;;;;;;;;5011452;28;20226;-75
2023/08/11 08:53:10;;;;;;;3.50;3.20;;;;;;;;;;5028168;28;20167;-75
2023/08/11 08:55:35;;;;;;;3.10;2.90;;;;;;;;;;5012412;28;20193;-76
2023/08/11 08:58:00;;;;;;;3.40;3.15;;;;;;;;;;5007469;28;20215;-76
2023/08/11 09:00:26;;;;;;;3.85;3.15;;;;;;;;;;5022942;28;20193;-76
2023/08/11 09:02:51;;;;;;;3.43;3.13;;;;;;;;;;5008604;28;20207;-75
2023/08/11 09:05:17;;;;;;;4.13;3.73;;;;;;;;;;5029980;28;20205;-75
2023/08/11 09:07:42;;;;;;;3.70;3.17;;;;;;;;;;5028865;28;20218;-76
2023/08/11 09:10:07;;;;;;;5.03;3.30;;;;;;;;;;5005330;28;20210;-75
2023/08/11 09:12:32;;;;;;;3.35;2.72;;;;;;;;;;5016636;28;20289;-75
2023/08/11 09:14:59;;;;;;;3.67;3.38;;;;;;;;;;5014571;28;20210;-75
2023/08/11 09:17:25;;;;;;;3.45;3.15;;;;;;;;;;5010285;28;20178;-75
2023/08/11 09:19:51;;;;;;;4.50;3.30;;;;;;;;;;5009728;28;20185;-75
2023/08/11 09:22:16;;;;;;;3.50;3.20;;;;;;;;;;5029500;28;20174;-76
2023/08/11 09:24:45;;;;;;;4.32;3.92;;;;;;;;;;5009996;28;20198;-75
2023/08/11 09:27:11;;;;;;;3.58;3.00;;;;;;;;;;5007115;28;20233;-75
2023/08/11 09:29:37;;;;;;;3.75;3.45;;;;;;;;;;5010817;28;20198;-75
2023/08/11 09:32:02;;;;;;;3.80;3.20;;;;;;;;;;5013833;28;20206;-75
2023/08/11 09:34:27;;;;;;;4.20;3.40;;;;;;;;;;5009180;28;20187;-75
2023/08/11 09:36:53;;;;;;;18.95;5.03;;;;;;;;;;5033290;28;20224;-75
2023/08/11 09:39:18;;;;;;;3.63;3.03;;;;;;;;;;5014912;28;20191;-75
2023/08/11 09:41:47;;;;;;;3.65;3.08;;;;;;;;;;5014396;28;20228;-75
2023/08/11 09:44:17;;;;;;;4.32;3.15;;;;;;;;;;5018641;28;20179;-75
2023/08/11 09:46:42;;;;;;;3.65;3.35;;;;;;;;;;5028798;28;20182;-75
2023/08/11 09:49:08;;;;;;;3.22;3.00;;;;;;;;;;5015061;28;20179;-76
2023/08/11 09:51:34;;;;;;;3.85;3.30;;;;;;;;;;5028687;28;20262;-75
2023/08/11 09:54:01;;;;;;;6.28;3.53;;;;;;;;;;5013141;28;20175;-75
2023/08/11 09:56:26;;;;;;;3.22;2.92;;;;;;;;;;5015872;28;20217;-75
2023/08/11 09:58:52;;;;;;;3.58;2.97;;;;;;;;;;5030360;28;20248;-75
2023/08/11 10:01:18;;;;;;;3.40;3.20;;;;;;;;;;5020902;28;20205;-75
2023/08/11 10:03:44;;;;;;;3.78;3.47;;;;;;;;;;5015706;28;20207;-76
2023/08/11 10:06:13;;;;;;;3.47;3.15;;;;;;;;;;5014430;28;20293;-75
2023/08/11 10:08:38;;;;;;;3.50;3.20;;;;;;;;;;5009792;28;20325;-75
2023/08/11 10:11:04;;;;;;;3.63;3.33;;;;;;;;;;5015748;28;20266;-75
2023/08/11 10:13:29;;;;;;;4.38;3.38;;;;;;;;;;5024101;28;20179;-75
2023/08/11 10:15:55;;;;;;;5.25;3.25;;;;;;;;;;5013371;28;20325;-75
2023/08/11 10:18:20;;;;;;;4.43;3.40;;;;;;;;;;5013935;28;20183;-75
2023/08/11 10:20:50;;;;;;;3.45;3.15;;;;;;;;;;5032631;28;20182;-75
2023/08/11 10:23:16;;;;;;;3.67;3.38;;;;;;;;;;5034015;28;20180;-75
2023/08/11 10:25:41;;;;;;;7.57;3.88;;;;;;;;;;5013978;28;20212;-75
2023/08/11 10:28:07;;;;;;;3.30;3.10;;;;;;;;;;5015535;28;20171;-76
2023/08/11 10:30:32;;;;;;;4.82;3.67;;;;;;;;;;5015750;28;20265;-76
2023/08/11 10:33:04;;;;;;;5.18;3.38;;;;;;;;;;5014654;28;20266;-75
2023/08/11 10:35:35;;;;;;;4.35;3.00;;;;;;;;;;5032075;28;20187;-75
2023/08/11 10:38:03;;;;;;;5.57;4.22;;;;;;;;;;5023717;28;20187;-75
2023/08/11 10:40:35;;;;;;;18.95;5.20;;;;;;;;;;5007249;28;20391;-75
2023/08/11 10:43:01;;;;;;;5.18;3.28;;;;;;;;;;5013827;28;20190;-75
2023/08/11 10:45:27;;;;;;;8.68;3.88;;;;;;;;;;5023610;28;20222;-75
2023/08/11 10:47:53;;;;;;;5.80;3.50;;;;;;;;;;5013581;28;20183;-76
2023/08/11 10:50:18;;;;;;;3.85;3.30;;;;;;;;;;5029104;28;20298;-76
2023/08/11 10:52:45;;;;;;;3.45;3.13;;;;;;;;;;5014814;28;20274;-75
2023/08/11 10:55:10;;;;;;;3.83;3.38;;;;;;;;;;5012455;28;20198;-75
2023/08/11 10:57:35;;;;;;;3.80;3.50;;;;;;;;;;5014833;28;20178;-75
2023/08/11 11:00:01;;;;;;;3.70;3.40;;;;;;;;;;5012384;28;20187;-76
2023/08/11 11:02:26;;;;;;;3.50;3.20;;;;;;;;;;5028286;28;20187;-75
2023/08/11 11:04:52;;;;;;;3.90;3.60;;;;;;;;;;5010329;28;20261;-75
2023/08/11 11:07:20;;;;;;;3.55;3.25;;;;;;;;;;5011376;28;20183;-75
2023/08/11 11:09:45;;;;;;;3.45;3.15;;;;;;;;;;5013271;28;20201;-75
2023/08/11 11:12:10;;;;;;;3.78;3.00;;;;;;;;;;5011497;28;20246;-75
2023/08/11 11:14:36;;;;;;;4.45;3.30;;;;;;;;;;5014338;28;20182;-75
2023/08/11 11:17:03;;;;;;;5.45;3.50;;;;;;;;;;5013767;28;20186;-75
2023/08/11 11:19:29;;;;;;;3.70;3.40;;;;;;;;;;5025916;28;20187;-75
2023/08/11 11:21:54;;;;;;;5.47;3.53;;;;;;;;;;5013558;28;20256;-74
2023/08/11 11:24:20;;;;;;;19.17;6.05;;;;;;;;;;5014141;28;20229;-75
2023/08/11 11:26:45;;;;;;;3.70;3.30;;;;;;;;;;5006481;28;20182;-75
2023/08/11 11:29:11;;;;;;;3.53;3.22;;;;;;;;;;5017510;28;20246;-75
2023/08/11 11:31:38;;;;;;;3.70;3.40;;;;;;;;;;5012764;28;20206;-75
2023/08/11 11:34:04;;;;;;;3.70;3.20;;;;;;;;;;5014484;28;20257;-75
2023/08/11 11:36:29;;;;;;;4.03;3.40;;;;;;;;;;5009968;28;20194;-76
2023/08/11 11:38:55;;;;;;;4.00;3.33;;;;;;;;;;5005572;28;20175;-75
2023/08/11 11:41:21;;;;;;;3.70;3.40;;;;;;;;;;5020294;28;20273;-75
2023/08/11 11:43:47;;;;;;;3.95;3.53;;;;;;;;;;5030643;28;20174;-75
2023/08/11 11:46:16;;;;;;;3.05;2.85;;;;;;;;;;5031115;28;20203;-76
2023/08/11 11:48:45;;;;;;;3.40;3.20;;;;;;;;;;5006543;28;20179;-75
2023/08/11 11:51:12;;;;;;;4.57;3.20;;;;;;;;;;5010006;28;20258;-75
2023/08/11 11:53:38;;;;;;;3.33;3.03;;;;;;;;;;5028284;28;20265;-75
2023/08/11 11:56:04;;;;;;;3.85;3.45;;;;;;;;;;5013597;28;20229;-75
2023/08/11 11:58:29;;;;;;;4.13;3.35;;;;;;;;;;5007933;28;20171;-75
2023/08/11 12:00:55;;;;;;;4.63;3.40;;;;;;;;;;5014389;28;20205;-75
2023/08/11 12:03:20;;;;;;;3.58;3.28;;;;;;;;;;5015755;28;20178;-75
2023/08/11 12:05:46;;;;;;;3.65;3.35;;;;;;;;;;5015028;28;20207;-75
2023/08/11 12:08:18;;;;;;;3.95;3.65;;;;;;;;;;5029689;28;20183;-75
2023/08/11 12:10:44;;;;;;;4.13;3.22;;;;;;;;;;5030790;28;20223;-75
2023/08/11 12:13:11;;;;;;;5.18;3.38;;;;;;;;;;5014219;28;20206;-75
2023/08/11 12:15:36;;;;;;;4.20;3.80;;;;;;;;;;5011331;28;20272;-75
2023/08/11 12:18:03;;;;;;;4.15;3.83;;;;;;;;;;5005017;28;20224;-75
2023/08/11 12:20:28;;;;;;;3.78;3.47;;;;;;;;;;5009229;28;20207;-76
2023/08/11 12:22:54;;;;;;;3.75;3.38;;;;;;;;;;5013118;28;20271;-75
2023/08/11 12:25:19;;;;;;;3.92;3.33;;;;;;;;;;5023605;28;20246;-75
2023/08/11 12:27:44;;;;;;;3.42;3.13;;;;;;;;;;5007182;28;20232;-75
2023/08/11 12:30:10;;;;;;;5.75;3.80;;;;;;;;;;5011568;28;20261;-75
2023/08/11 12:32:36;;;;;;;3.63;3.33;;;;;;;;;;5007833;28;20191;-75
2023/08/11 12:35:02;;;;;;;4.00;3.70;;;;;;;;;;5003849;28;20175;-75
2023/08/11 12:37:27;;;;;;;3.50;3.20;;;;;;;;;;5022140;28;20257;-75
2023/08/11 12:39:53;;;;;;;6.07;3.28;;;;;;;;;;5013010;28;20217;-75
2023/08/11 12:42:18;;;;;;;4.32;3.60;;;;;;;;;;5006952;28;20189;-75
2023/08/11 12:44:43;;;;;;;3.43;3.13;;;;;;;;;;5025080;28;20203;-75
2023/08/11 12:47:08;;;;;;;3.42;3.22;;;;;;;;;;5022936;28;20419;-75
2023/08/11 12:49:33;;;;;;;31.40;6.00;;;;;;;;;;5025948;28;20254;-75
2023/08/11 12:51:59;;;;;;;3.75;3.15;;;;;;;;;;5010357;28;20326;-75
2023/08/11 12:54:24;;;;;;;3.60;3.30;;;;;;;;;;5030546;28;20167;-75
2023/08/11 12:56:49;;;;;;;16.20;4.95;;;;;;;;;;5013321;28;20448;-75
2023/08/11 12:59:14;;;;;;;3.37;3.07;;;;;;;;;;5011533;28;20176;-75
2023/08/11 13:01:39;;;;;;;3.47;3.20;;;;;;;;;;5012621;28;20434;-75
2023/08/11 13:04:06;;;;;;;3.67;3.38;;;;;;;;;;5018136;28;20408;-75
2023/08/11 13:06:32;;;;;;;3.83;3.33;;;;;;;;;;5015768;28;20207;-75
2023/08/11 13:08:57;;;;;;;3.85;3.53;;;;;;;;;;5026410;28;20182;-75
2023/08/11 13:11:22;;;;;;;3.90;3.60;;;;;;;;;;5033848;28;20171;-75
2023/08/11 13:13:48;;;;;;;3.92;3.28;;;;;;;;;;5015606;28;20175;-75
2023/08/11 13:16:13;;;;;;;4.72;3.45;;;;;;;;;;5030578;28;20191;-75
2023/08/11 13:18:38;;;;;;;4.20;3.80;;;;;;;;;;5028119;28;20179;-75
2023/08/11 13:21:04;;;;;;;4.20;3.80;;;;;;;;;;5015802;28;20265;-75
2023/08/11 13:23:31;;;;;;;5.07;3.72;;;;;;;;;;5030610;28;20175;-75
2023/08/11 13:25:57;;;;;;;3.53;3.22;;;;;;;;;;5011673;28;20210;-75
2023/08/11 13:28:22;;;;;;;4.47;3.70;;;;;;;;;;5027312;28;20205;-75
2023/08/11 13:30:47;;;;;;;3.58;3.28;;;;;;;;;;5030137;28;20248;-75
2023/08/11 13:33:12;;;;;;;4.53;4.03;;;;;;;;;;5013615;28;20175;-75
2023/08/11 13:35:38;;;;;;;3.83;3.53;;;;;;;;;;5011417;28;20182;-75
2023/08/11 13:38:03;;;;;;;4.03;3.73;;;;;;;;;;5013240;28;20171;-75
2023/08/11 13:40:28;;;;;;;4.05;3.75;;;;;;;;;;5033012;28;20502;-75
2023/08/11 13:42:53;;;;;;;3.53;3.23;;;;;;;;;;5007969;28;20205;-75
2023/08/11 13:45:18;;;;;;;4.33;4.03;;;;;;;;;;5015065;28;20543;-75
2023/08/11 13:47:44;;;;;;;3.95;3.53;;;;;;;;;;5029884;28;20424;-75
2023/08/11 13:50:09;;;;;;;4.25;3.70;;;;;;;;;;5029561;28;20201;-76
2023/08/11 13:52:35;;;;;;;3.78;3.47;;;;;;;;;;5023454;28;20175;-75
2023/08/11 13:55:01;;;;;;;4.95;3.65;;;;;;;;;;5033454;28;20269;-75
2023/08/11 13:57:26;;;;;;;4.35;3.85;;;;;;;;;;5009815;28;20185;-75
2023/08/11 13:59:54;;;;;;;5.03;3.88;;;;;;;;;;5015711;28;20186;-75
2023/08/11 14:02:19;;;;;;;4.30;3.90;;;;;;;;;;5029724;28;20198;-75
2023/08/11 14:04:44;;;;;;;4.23;3.53;;;;;;;;;;5018568;28;20202;-75
2023/08/11 14:07:09;;;;;;;4.07;3.78;;;;;;;;;;5009989;28;20474;-75
2023/08/11 14:09:34;;;;;;;4.60;4.20;;;;;;;;;;5009873;28;20242;-75
2023/08/11 14:12:00;;;;;;;4.53;4.15;;;;;;;;;;5012125;28;20475;-75
2023/08/11 14:14:25;;;;;;;4.27;3.97;;;;;;;;;;5014911;28;20293;-75
2023/08/11 14:16:50;;;;;;;4.00;3.70;;;;;;;;;;5028294;28;20435;-75
2023/08/11 14:19:15;;;;;;;5.05;4.00;;;;;;;;;;5013549;28;20420;-75
2023/08/11 14:21:40;;;;;;;4.38;3.97;;;;;;;;;;5010269;28;20182;-75
2023/08/11 14:24:06;;;;;;;3.90;3.60;;;;;;;;;;5032459;28;20179;-76
2023/08/11 14:26:31;;;;;;;3.85;3.55;;;;;;;;;;5013240;28;20208;-75
2023/08/11 14:28:56;;;;;;;4.60;3.85;;;;;;;;;;5007148;28;20270;-79
2023/08/11 14:31:21;;;;;;;4.43;3.63;;;;;;;;;;5030076;28;20182;-79
2023/08/11 14:33:47;;;;;;;4.10;3.80;;;;;;;;;;5010211;28;20408;-78
2023/08/11 14:36:12;;;;;;;4.00;3.70;;;;;;;;;;5005332;28;20472;-78